Thursday, January 17, 2019, 6:20 AM EST
Back to Local

KPSM, Pease Air Force Base / Portsmouth

Location: Portsmouth, NH, United States Lat: 43.083
Local Time: 6:20 AM EST (11:20 GMT) Lon: -70.817
Time Zone: US/Eastern Elev: 101 ft

Show me the last for .
Show Decoded

2019-01-17 04:56 METAR KPSM 170956Z 29010KT 10SM CLR M11/M22 A3029 RMK AO2A SLP261 T11061219 =
2019-01-17 03:56 METAR KPSM 170856Z 29009KT 10SM CLR M10/M21 A3027 RMK AO2A SLP254 T11001214
                 52036 =
2019-01-17 02:56 METAR KPSM 170756Z 29011KT 10SM FEW040 M09/M21 A3025 RMK AO2A SLP247 T10901211 =
2019-01-17 01:56 METAR KPSM 170656Z 29008KT 10SM FEW040 M08/M19 A3021 RMK AO2A SLP234 T10761186 =
2019-01-17 00:56 METAR KPSM 170556Z 29014KT 10SM FEW040 M06/M20 A3016 RMK AO2A SLP217 60000
                 T10601201 10013 21060 52043 =
2019-01-16 23:56 METAR KPSM 170456Z 31015G23KT 10SM FEW040 M04/M19 A3012 RMK AO2A PK WND 32027/18
                 SLP203 T10431186 400301076 =
2019-01-16 22:56 METAR KPSM 170356Z 31014G21KT 10SM FEW040 FEW055 M03/M13 A3010 RMK AO2A PK WND
                 31026/23 PRESRR SLP196 T10261132 =
2019-01-16 21:58 METAR KPSM 170258Z 29013KT 10SM SCT040 BKN055 00/M08 A3004 RMK AO2A PK WND
                 32031/13 SNB44E53 SLP176 P0000 60000 T10011081 52036 =
2019-01-16 21:44 METAR KPSM 170244Z AUTO 29013G22KT 10SM -RA BKN040 OVC055 00/M08 A3004 RMK AO2
                 RAB44 PRESRR SLP176 =
2019-01-16 20:56 METAR KPSM 170156Z 28006KT 10SM BKN046 BKN065 00/M06 A2999 RMK AO2A SLP159
                 T00021064 =
2019-01-16 19:56 METAR KPSM 170056Z 23008KT 10SM FEW045 SCT060 01/M06 A2995 RMK AO2A SLP146
                 T00081065 =
2019-01-16 18:56 METAR KPSM 162356Z 23005KT 10SM SCT048 BKN065 01/M07 A2993 RMK AO2A SLP139
                 T00101070 10030 20010 53022 =
2019-01-16 17:56 METAR KPSM 162256Z 23008KT 10SM BKN070 02/M07 A2990 RMK AO2A SLP129 T00161072 =
2019-01-16 16:56 METAR KPSM 162156Z 21007KT 10SM FEW040 BKN070 02/M07 A2987 RMK AO2A SLP118
                 T00201073 =
2019-01-16 15:56 METAR KPSM 162056Z 25009KT 10SM SCT040 02/M07 A2987 RMK AO2A SLP118 T00241070 =
2019-01-16 14:56 METAR KPSM 161956Z 25012KT 10SM SCT040 03/M07 A2986 RMK AO2A SLP115 T00291070 =
2019-01-16 13:56 METAR KPSM 161856Z 24013G18KT 10SM BKN039 02/M07 A2986 RMK AO2A SLP115 T00231068
                 =
2019-01-16 12:56 METAR KPSM 161756Z 25007KT 10SM OVC036 02/M07 A2985 RMK AO2A SLP112 T00191072
                 10026 21061 57022 =
2019-01-16 11:56 METAR KPSM 161656Z 24009KT 10SM BKN037 BKN250 02/M07 A2987 RMK AO2A SLP118
                 T00171074 =
2019-01-16 10:56 METAR KPSM 161556Z 24009KT 10SM OVC035 01/M07 A2990 RMK AO2A SLP129 T00061074 =
2019-01-16 09:56 METAR KPSM 161456Z 22009KT 10SM FEW040 00/M07 A2992 RMK AO2A SLP135 T00001073
                 56012 =
2019-01-16 08:56 METAR KPSM 161356Z 20005KT 10SM FEW040 BKN055 M03/M07 A2992 RMK AO2A SLP136
                 T10281072 =
2019-01-16 07:56 METAR KPSM 161256Z 19007KT 10SM BKN035 M04/M08 A2994 RMK AO2A SLP142 T10431077 =
2019-01-16 06:56 METAR KPSM 161156Z 00000KT 10SM OVC036 M06/M08 A2996 RMK AO2A SLP149 T10621083
                 11054 21076 55005 =

Support USWX by starting your Amazon purchase here.